sensor_id;sensor_type;location;lat;lon;timestamp;temperature;humidity
15900;DHT22;8048;50.644;6.184;2022-08-06T00:00:51;11.60;98.40
15900;DHT22;8048;50.644;6.184;2022-08-06T00:03:16;11.60;98.60
15900;DHT22;8048;50.644;6.184;2022-08-06T00:05:42;11.60;98.30
15900;DHT22;8048;50.644;6.184;2022-08-06T00:08:08;11.50;98.10
15900;DHT22;8048;50.644;6.184;2022-08-06T00:10:33;11.40;98.00
15900;DHT22;8048;50.644;6.184;2022-08-06T00:12:59;11.30;98.40
15900;DHT22;8048;50.644;6.184;2022-08-06T00:15:25;11.20;98.50
15900;DHT22;8048;50.644;6.184;2022-08-06T00:17:51;11.30;98.50
15900;DHT22;8048;50.644;6.184;2022-08-06T00:20:17;11.20;98.10
15900;DHT22;8048;50.644;6.184;2022-08-06T00:22:42;11.20;98.10
15900;DHT22;8048;50.644;6.184;2022-08-06T00:25:09;11.10;98.30
15900;DHT22;8048;50.644;6.184;2022-08-06T00:27:36;11.00;97.90
15900;DHT22;8048;50.644;6.184;2022-08-06T00:30:02;10.90;98.00
15900;DHT22;8048;50.644;6.184;2022-08-06T00:32:28;10.90;98.10
15900;DHT22;8048;50.644;6.184;2022-08-06T00:34:54;10.80;98.40
15900;DHT22;8048;50.644;6.184;2022-08-06T00:37:20;10.90;98.10
15900;DHT22;8048;50.644;6.184;2022-08-06T00:39:46;10.80;97.80
15900;DHT22;8048;50.644;6.184;2022-08-06T00:42:11;10.70;97.70
15900;DHT22;8048;50.644;6.184;2022-08-06T00:44:37;10.70;97.90
15900;DHT22;8048;50.644;6.184;2022-08-06T00:47:03;10.60;97.90
15900;DHT22;8048;50.644;6.184;2022-08-06T00:49:28;10.60;98.10
15900;DHT22;8048;50.644;6.184;2022-08-06T00:51:54;10.50;97.90
15900;DHT22;8048;50.644;6.184;2022-08-06T00:54:20;10.40;97.70
15900;DHT22;8048;50.644;6.184;2022-08-06T00:56:46;10.40;97.70
15900;DHT22;8048;50.644;6.184;2022-08-06T00:59:11;10.30;97.70
15900;DHT22;8048;50.644;6.184;2022-08-06T01:01:37;10.30;97.60
15900;DHT22;8048;50.644;6.184;2022-08-06T01:04:03;10.20;97.60
15900;DHT22;8048;50.644;6.184;2022-08-06T01:06:29;10.10;97.70
15900;DHT22;8048;50.644;6.184;2022-08-06T01:08:55;10.00;97.90
15900;DHT22;8048;50.644;6.184;2022-08-06T01:11:20;10.00;98.00
15900;DHT22;8048;50.644;6.184;2022-08-06T01:13:46;10.00;97.90
15900;DHT22;8048;50.644;6.184;2022-08-06T01:16:18;10.00;98.10
15900;DHT22;8048;50.644;6.184;2022-08-06T01:22:13;9.90;98.20
15900;DHT22;8048;50.644;6.184;2022-08-06T01:25:02;9.90;98.30
15900;DHT22;8048;50.644;6.184;2022-08-06T01:27:50;9.80;98.30
15900;DHT22;8048;50.644;6.184;2022-08-06T01:30:19;9.70;98.50
15900;DHT22;8048;50.644;6.184;2022-08-06T01:35:18;9.50;98.80
15900;DHT22;8048;50.644;6.184;2022-08-06T01:40:22;9.50;98.80
15900;DHT22;8048;50.644;6.184;2022-08-06T01:42:50;9.60;98.40
15900;DHT22;8048;50.644;6.184;2022-08-06T01:45:19;9.50;98.10
15900;DHT22;8048;50.644;6.184;2022-08-06T01:47:47;9.50;98.00
15900;DHT22;8048;50.644;6.184;2022-08-06T01:50:17;9.40;97.90
15900;DHT22;8048;50.644;6.184;2022-08-06T01:52:47;9.30;98.00
15900;DHT22;8048;50.644;6.184;2022-08-06T01:55:16;9.20;98.20
15900;DHT22;8048;50.644;6.184;2022-08-06T01:57:49;9.10;98.10
15900;DHT22;8048;50.644;6.184;2022-08-06T02:00:16;8.90;98.20
15900;DHT22;8048;50.644;6.184;2022-08-06T02:02:42;8.90;98.40
15900;DHT22;8048;50.644;6.184;2022-08-06T02:05:09;8.90;98.50
15900;DHT22;8048;50.644;6.184;2022-08-06T02:07:39;8.90;98.40
15900;DHT22;8048;50.644;6.184;2022-08-06T02:10:06;8.90;98.50
15900;DHT22;8048;50.644;6.184;2022-08-06T02:12:34;8.80;98.70
15900;DHT22;8048;50.644;6.184;2022-08-06T02:15:06;8.70;98.90
15900;DHT22;8048;50.644;6.184;2022-08-06T02:17:39;8.80;98.80
15900;DHT22;8048;50.644;6.184;2022-08-06T02:20:06;8.70;98.60
15900;DHT22;8048;50.644;6.184;2022-08-06T02:22:37;8.60;98.70
15900;DHT22;8048;50.644;6.184;2022-08-06T02:25:07;8.50;98.90
15900;DHT22;8048;50.644;6.184;2022-08-06T02:27:38;8.60;99.00
15900;DHT22;8048;50.644;6.184;2022-08-06T02:30:06;8.60;98.80
15900;DHT22;8048;50.644;6.184;2022-08-06T02:32:32;8.50;98.70
15900;DHT22;8048;50.644;6.184;2022-08-06T02:34:57;8.50;98.80
15900;DHT22;8048;50.644;6.184;2022-08-06T02:37:33;8.50;98.80
15900;DHT22;8048;50.644;6.184;2022-08-06T02:40:22;8.50;98.80
15900;DHT22;8048;50.644;6.184;2022-08-06T02:43:04;8.50;98.70
15900;DHT22;8048;50.644;6.184;2022-08-06T02:45:40;8.40;98.50
15900;DHT22;8048;50.644;6.184;2022-08-06T02:48:18;8.40;98.20
15900;DHT22;8048;50.644;6.184;2022-08-06T02:50:46;8.30;98.30
15900;DHT22;8048;50.644;6.184;2022-08-06T02:53:16;8.20;98.20
15900;DHT22;8048;50.644;6.184;2022-08-06T02:55:46;8.30;98.10
15900;DHT22;8048;50.644;6.184;2022-08-06T02:58:17;8.20;98.10
15900;DHT22;8048;50.644;6.184;2022-08-06T03:00:45;8.20;98.20
15900;DHT22;8048;50.644;6.184;2022-08-06T03:03:13;8.10;98.10
15900;DHT22;8048;50.644;6.184;2022-08-06T03:05:43;8.00;98.10
15900;DHT22;8048;50.644;6.184;2022-08-06T03:08:10;8.10;98.10
15900;DHT22;8048;50.644;6.184;2022-08-06T03:10:39;8.00;98.10
15900;DHT22;8048;50.644;6.184;2022-08-06T03:13:06;7.90;98.00
15900;DHT22;8048;50.644;6.184;2022-08-06T03:15:33;7.90;98.00
15900;DHT22;8048;50.644;6.184;2022-08-06T03:18:01;8.00;98.10
15900;DHT22;8048;50.644;6.184;2022-08-06T03:20:28;7.90;97.90
15900;DHT22;8048;50.644;6.184;2022-08-06T03:22:57;7.90;98.00
15900;DHT22;8048;50.644;6.184;2022-08-06T03:25:26;7.80;97.80
15900;DHT22;8048;50.644;6.184;2022-08-06T03:27:53;7.80;97.80
15900;DHT22;8048;50.644;6.184;2022-08-06T03:30:20;7.70;97.90
15900;DHT22;8048;50.644;6.184;2022-08-06T03:32:47;7.70;98.10
15900;DHT22;8048;50.644;6.184;2022-08-06T03:35:14;7.70;98.20
15900;DHT22;8048;50.644;6.184;2022-08-06T03:37:41;7.60;98.10
15900;DHT22;8048;50.644;6.184;2022-08-06T03:40:09;7.60;98.00
15900;DHT22;8048;50.644;6.184;2022-08-06T03:42:35;7.60;98.00
15900;DHT22;8048;50.644;6.184;2022-08-06T03:45:02;7.50;98.20
15900;DHT22;8048;50.644;6.184;2022-08-06T03:47:41;7.50;98.20
15900;DHT22;8048;50.644;6.184;2022-08-06T03:50:15;7.50;98.10
15900;DHT22;8048;50.644;6.184;2022-08-06T03:52:50;7.40;98.10
15900;DHT22;8048;50.644;6.184;2022-08-06T03:55:23;7.40;98.00
15900;DHT22;8048;50.644;6.184;2022-08-06T03:57:51;7.40;98.00
15900;DHT22;8048;50.644;6.184;2022-08-06T04:00:20;7.40;98.10
15900;DHT22;8048;50.644;6.184;2022-08-06T04:02:48;7.40;98.00
15900;DHT22;8048;50.644;6.184;2022-08-06T04:05:18;7.30;97.80
15900;DHT22;8048;50.644;6.184;2022-08-06T04:07:44;7.30;98.00
15900;DHT22;8048;50.644;6.184;2022-08-06T04:10:10;7.30;98.20
15900;DHT22;8048;50.644;6.184;2022-08-06T04:12:36;7.20;98.20
15900;DHT22;8048;50.644;6.184;2022-08-06T04:15:04;7.20;98.30
15900;DHT22;8048;50.644;6.184;2022-08-06T04:17:31;7.20;98.40
15900;DHT22;8048;50.644;6.184;2022-08-06T04:19:58;7.20;98.60
15900;DHT22;8048;50.644;6.184;2022-08-06T04:22:24;7.20;98.60
15900;DHT22;8048;50.644;6.184;2022-08-06T04:24:50;7.20;98.40
15900;DHT22;8048;50.644;6.184;2022-08-06T04:27:16;7.10;98.20
15900;DHT22;8048;50.644;6.184;2022-08-06T04:29:44;7.20;98.30
15900;DHT22;8048;50.644;6.184;2022-08-06T04:32:13;7.20;98.50
15900;DHT22;8048;50.644;6.184;2022-08-06T04:34:41;7.20;98.30
15900;DHT22;8048;50.644;6.184;2022-08-06T04:37:07;7.20;98.30
15900;DHT22;8048;50.644;6.184;2022-08-06T04:39:34;7.10;98.50
15900;DHT22;8048;50.644;6.184;2022-08-06T04:42:01;7.20;98.70
15900;DHT22;8048;50.644;6.184;2022-08-06T04:44:27;7.20;98.70
15900;DHT22;8048;50.644;6.184;2022-08-06T04:46:54;7.10;98.70
15900;DHT22;8048;50.644;6.184;2022-08-06T04:49:20;7.20;98.90
15900;DHT22;8048;50.644;6.184;2022-08-06T04:51:47;7.20;99.00
15900;DHT22;8048;50.644;6.184;2022-08-06T04:54:16;7.20;99.20
15900;DHT22;8048;50.644;6.184;2022-08-06T04:56:42;7.30;99.20
15900;DHT22;8048;50.644;6.184;2022-08-06T04:59:09;7.30;99.30
15900;DHT22;8048;50.644;6.184;2022-08-06T05:01:35;7.30;99.40
15900;DHT22;8048;50.644;6.184;2022-08-06T05:04:02;7.40;99.40
15900;DHT22;8048;50.644;6.184;2022-08-06T05:06:48;7.40;99.40
15900;DHT22;8048;50.644;6.184;2022-08-06T05:09:20;7.50;99.60
15900;DHT22;8048;50.644;6.184;2022-08-06T05:11:59;7.50;99.80
15900;DHT22;8048;50.644;6.184;2022-08-06T05:14:43;7.60;99.90
15900;DHT22;8048;50.644;6.184;2022-08-06T05:17:14;7.70;99.90
15900;DHT22;8048;50.644;6.184;2022-08-06T05:19:48;7.80;99.90
15900;DHT22;8048;50.644;6.184;2022-08-06T05:22:16;7.90;99.90
15900;DHT22;8048;50.644;6.184;2022-08-06T05:24:43;8.00;99.90
15900;DHT22;8048;50.644;6.184;2022-08-06T05:27:10;8.10;99.90
15900;DHT22;8048;50.644;6.184;2022-08-06T05:29:36;8.20;99.90
15900;DHT22;8048;50.644;6.184;2022-08-06T05:32:02;8.30;99.90
15900;DHT22;8048;50.644;6.184;2022-08-06T05:34:29;8.30;99.90
15900;DHT22;8048;50.644;6.184;2022-08-06T05:36:54;8.40;99.90
15900;DHT22;8048;50.644;6.184;2022-08-06T05:39:20;8.50;99.90
15900;DHT22;8048;50.644;6.184;2022-08-06T05:41:46;8.70;99.90
15900;DHT22;8048;50.644;6.184;2022-08-06T05:44:12;8.70;99.90
15900;DHT22;8048;50.644;6.184;2022-08-06T05:46:52;8.90;99.90
15900;DHT22;8048;50.644;6.184;2022-08-06T05:49:26;9.00;99.90
15900;DHT22;8048;50.644;6.184;2022-08-06T05:57:41;9.20;99.90
15900;DHT22;8048;50.644;6.184;2022-08-06T06:00:18;9.40;99.90
15900;DHT22;8048;50.644;6.184;2022-08-06T06:02:47;9.50;99.90
15900;DHT22;8048;50.644;6.184;2022-08-06T06:05:14;9.60;99.90
15900;DHT22;8048;50.644;6.184;2022-08-06T06:07:40;9.80;99.80
15900;DHT22;8048;50.644;6.184;2022-08-06T06:10:07;9.90;99.60
15900;DHT22;8048;50.644;6.184;2022-08-06T06:12:34;10.00;98.80
15900;DHT22;8048;50.644;6.184;2022-08-06T06:15:01;10.10;98.70
15900;DHT22;8048;50.644;6.184;2022-08-06T06:17:48;10.20;99.10
15900;DHT22;8048;50.644;6.184;2022-08-06T06:22:55;10.50;99.90
15900;DHT22;8048;50.644;6.184;2022-08-06T06:25:33;10.60;99.90
15900;DHT22;8048;50.644;6.184;2022-08-06T06:36:03;11.20;99.90
15900;DHT22;8048;50.644;6.184;2022-08-06T06:38:55;11.30;99.90
15900;DHT22;8048;50.644;6.184;2022-08-06T06:41:38;11.40;99.90
15900;DHT22;8048;50.644;6.184;2022-08-06T06:52:05;12.00;99.90
15900;DHT22;8048;50.644;6.184;2022-08-06T06:54:37;12.10;99.90
15900;DHT22;8048;50.644;6.184;2022-08-06T06:57:05;12.20;99.90
15900;DHT22;8048;50.644;6.184;2022-08-06T06:59:39;12.30;99.90
15900;DHT22;8048;50.644;6.184;2022-08-06T07:02:05;12.40;99.90
15900;DHT22;8048;50.644;6.184;2022-08-06T07:04:32;12.50;99.90
15900;DHT22;8048;50.644;6.184;2022-08-06T07:07:00;12.60;99.90
15900;DHT22;8048;50.644;6.184;2022-08-06T07:09:30;12.80;99.90
15900;DHT22;8048;50.644;6.184;2022-08-06T07:11:58;13.00;99.90
15900;DHT22;8048;50.644;6.184;2022-08-06T07:14:25;13.20;99.90
15900;DHT22;8048;50.644;6.184;2022-08-06T07:16:53;13.40;99.90
15900;DHT22;8048;50.644;6.184;2022-08-06T07:19:22;13.50;99.30
15900;DHT22;8048;50.644;6.184;2022-08-06T07:21:49;13.70;99.20
15900;DHT22;8048;50.644;6.184;2022-08-06T07:24:16;13.90;98.80
15900;DHT22;8048;50.644;6.184;2022-08-06T07:26:44;13.80;98.40
15900;DHT22;8048;50.644;6.184;2022-08-06T07:29:12;13.90;98.40
15900;DHT22;8048;50.644;6.184;2022-08-06T07:31:38;14.00;98.20
15900;DHT22;8048;50.644;6.184;2022-08-06T07:34:06;14.10;97.70
15900;DHT22;8048;50.644;6.184;2022-08-06T07:36:33;14.20;97.10
15900;DHT22;8048;50.644;6.184;2022-08-06T07:39:10;14.30;96.60
15900;DHT22;8048;50.644;6.184;2022-08-06T07:41:36;14.40;96.70
15900;DHT22;8048;50.644;6.184;2022-08-06T07:44:03;14.50;96.40
15900;DHT22;8048;50.644;6.184;2022-08-06T07:46:43;14.60;96.60
15900;DHT22;8048;50.644;6.184;2022-08-06T07:49:13;14.70;95.90
15900;DHT22;8048;50.644;6.184;2022-08-06T07:51:43;14.80;95.30
15900;DHT22;8048;50.644;6.184;2022-08-06T07:54:09;14.80;95.30
15900;DHT22;8048;50.644;6.184;2022-08-06T07:56:37;14.80;94.80
15900;DHT22;8048;50.644;6.184;2022-08-06T07:59:04;14.90;94.70
15900;DHT22;8048;50.644;6.184;2022-08-06T08:01:31;15.00;95.10
15900;DHT22;8048;50.644;6.184;2022-08-06T08:03:57;15.10;94.90
15900;DHT22;8048;50.644;6.184;2022-08-06T08:06:43;15.20;94.40
15900;DHT22;8048;50.644;6.184;2022-08-06T08:09:16;15.40;93.80
15900;DHT22;8048;50.644;6.184;2022-08-06T08:11:45;15.70;94.00
15900;DHT22;8048;50.644;6.184;2022-08-06T08:14:12;15.80;93.40
15900;DHT22;8048;50.644;6.184;2022-08-06T08:16:39;16.00;92.70
15900;DHT22;8048;50.644;6.184;2022-08-06T08:19:31;16.00;92.20
15900;DHT22;8048;50.644;6.184;2022-08-06T08:22:02;16.30;92.30
15900;DHT22;8048;50.644;6.184;2022-08-06T08:24:29;16.50;91.90
15900;DHT22;8048;50.644;6.184;2022-08-06T08:26:57;16.80;91.70
15900;DHT22;8048;50.644;6.184;2022-08-06T08:29:23;17.10;90.20
15900;DHT22;8048;50.644;6.184;2022-08-06T08:31:49;17.20;90.00
15900;DHT22;8048;50.644;6.184;2022-08-06T08:34:14;17.50;90.50
15900;DHT22;8048;50.644;6.184;2022-08-06T08:36:41;17.70;88.50
15900;DHT22;8048;50.644;6.184;2022-08-06T08:39:07;17.90;88.30
15900;DHT22;8048;50.644;6.184;2022-08-06T08:41:47;18.00;87.10
15900;DHT22;8048;50.644;6.184;2022-08-06T08:44:15;17.90;85.20
15900;DHT22;8048;50.644;6.184;2022-08-06T08:46:46;17.80;84.90
15900;DHT22;8048;50.644;6.184;2022-08-06T08:49:51;17.90;85.40
15900;DHT22;8048;50.644;6.184;2022-08-06T08:52:21;18.10;82.40
15900;DHT22;8048;50.644;6.184;2022-08-06T08:54:51;18.00;80.90
15900;DHT22;8048;50.644;6.184;2022-08-06T08:57:18;17.90;81.70
15900;DHT22;8048;50.644;6.184;2022-08-06T08:59:44;18.10;84.20
15900;DHT22;8048;50.644;6.184;2022-08-06T09:02:12;18.40;83.60
15900;DHT22;8048;50.644;6.184;2022-08-06T09:04:39;18.70;83.20
15900;DHT22;8048;50.644;6.184;2022-08-06T09:07:06;18.80;79.40
15900;DHT22;8048;50.644;6.184;2022-08-06T09:09:34;18.70;80.90
15900;DHT22;8048;50.644;6.184;2022-08-06T09:12:00;18.60;81.50
15900;DHT22;8048;50.644;6.184;2022-08-06T09:14:26;18.40;80.80
15900;DHT22;8048;50.644;6.184;2022-08-06T09:16:52;18.30;81.90
15900;DHT22;8048;50.644;6.184;2022-08-06T09:19:18;18.30;82.70
15900;DHT22;8048;50.644;6.184;2022-08-06T09:21:44;18.20;81.20
15900;DHT22;8048;50.644;6.184;2022-08-06T09:24:10;18.30;82.50
15900;DHT22;8048;50.644;6.184;2022-08-06T09:26:35;18.10;81.30
15900;DHT22;8048;50.644;6.184;2022-08-06T09:29:01;18.10;82.20
15900;DHT22;8048;50.644;6.184;2022-08-06T09:31:39;18.20;81.40
15900;DHT22;8048;50.644;6.184;2022-08-06T09:34:06;18.20;82.10
15900;DHT22;8048;50.644;6.184;2022-08-06T09:36:44;18.10;82.40
15900;DHT22;8048;50.644;6.184;2022-08-06T09:39:10;18.40;82.20
15900;DHT22;8048;50.644;6.184;2022-08-06T09:41:48;19.00;80.80
15900;DHT22;8048;50.644;6.184;2022-08-06T09:44:14;19.40;79.90
15900;DHT22;8048;50.644;6.184;2022-08-06T09:46:44;19.80;78.60
15900;DHT22;8048;50.644;6.184;2022-08-06T09:49:11;20.00;77.50
15900;DHT22;8048;50.644;6.184;2022-08-06T09:51:38;19.60;75.10
15900;DHT22;8048;50.644;6.184;2022-08-06T09:54:07;19.50;72.80
15900;DHT22;8048;50.644;6.184;2022-08-06T09:56:34;19.90;78.10
15900;DHT22;8048;50.644;6.184;2022-08-06T09:59:05;19.80;75.50
15900;DHT22;8048;50.644;6.184;2022-08-06T10:04:04;19.70;73.70
15900;DHT22;8048;50.644;6.184;2022-08-06T10:06:29;19.90;72.70
15900;DHT22;8048;50.644;6.184;2022-08-06T10:09:09;20.40;72.20
15900;DHT22;8048;50.644;6.184;2022-08-06T10:11:37;20.30;70.50
15900;DHT22;8048;50.644;6.184;2022-08-06T10:14:04;20.10;72.00
15900;DHT22;8048;50.644;6.184;2022-08-06T10:16:29;20.00;72.20
15900;DHT22;8048;50.644;6.184;2022-08-06T10:18:58;19.80;71.80
15900;DHT22;8048;50.644;6.184;2022-08-06T10:21:27;19.60;73.10
15900;DHT22;8048;50.644;6.184;2022-08-06T10:23:55;19.90;73.60
15900;DHT22;8048;50.644;6.184;2022-08-06T10:26:28;20.50;74.10
15900;DHT22;8048;50.644;6.184;2022-08-06T10:28:54;21.00;72.70
15900;DHT22;8048;50.644;6.184;2022-08-06T10:31:25;21.20;71.00
15900;DHT22;8048;50.644;6.184;2022-08-06T10:34:09;21.00;70.60
15900;DHT22;8048;50.644;6.184;2022-08-06T10:36:40;20.70;69.50
15900;DHT22;8048;50.644;6.184;2022-08-06T10:39:07;20.50;71.40
15900;DHT22;8048;50.644;6.184;2022-08-06T10:41:34;20.80;73.10
15900;DHT22;8048;50.644;6.184;2022-08-06T10:44:01;21.60;71.50
15900;DHT22;8048;50.644;6.184;2022-08-06T10:46:28;22.10;70.80
15900;DHT22;8048;50.644;6.184;2022-08-06T10:48:54;22.80;68.90
15900;DHT22;8048;50.644;6.184;2022-08-06T10:51:20;22.50;65.10
15900;DHT22;8048;50.644;6.184;2022-08-06T10:53:46;22.00;65.50
15900;DHT22;8048;50.644;6.184;2022-08-06T10:56:15;21.60;66.00
15900;DHT22;8048;50.644;6.184;2022-08-06T10:58:42;21.30;64.40
15900;DHT22;8048;50.644;6.184;2022-08-06T11:04:12;22.10;67.70
15900;DHT22;8048;50.644;6.184;2022-08-06T11:15:11;22.70;65.90
15900;DHT22;8048;50.644;6.184;2022-08-06T11:17:42;23.30;60.00
15900;DHT22;8048;50.644;6.184;2022-08-06T11:20:26;24.00;59.70
15900;DHT22;8048;50.644;6.184;2022-08-06T11:22:54;24.60;59.30
15900;DHT22;8048;50.644;6.184;2022-08-06T11:25:43;24.00;57.70
15900;DHT22;8048;50.644;6.184;2022-08-06T11:28:13;23.40;57.60
15900;DHT22;8048;50.644;6.184;2022-08-06T11:33:08;23.70;59.70
15900;DHT22;8048;50.644;6.184;2022-08-06T11:38:12;24.10;56.50
15900;DHT22;8048;50.644;6.184;2022-08-06T11:40:59;23.70;56.50
15900;DHT22;8048;50.644;6.184;2022-08-06T11:43:47;23.50;57.20
15900;DHT22;8048;50.644;6.184;2022-08-06T11:59:37;24.50;55.80
15900;DHT22;8048;50.644;6.184;2022-08-06T12:02:08;25.20;56.80
15900;DHT22;8048;50.644;6.184;2022-08-06T12:07:25;26.60;54.60
15900;DHT22;8048;50.644;6.184;2022-08-06T12:15:01;27.00;53.50
15900;DHT22;8048;50.644;6.184;2022-08-06T12:17:29;27.40;52.70
15900;DHT22;8048;50.644;6.184;2022-08-06T12:19:59;26.90;52.30
15900;DHT22;8048;50.644;6.184;2022-08-06T12:22:27;26.40;52.10
15900;DHT22;8048;50.644;6.184;2022-08-06T12:24:55;26.10;52.50
15900;DHT22;8048;50.644;6.184;2022-08-06T12:27:23;26.60;53.00
15900;DHT22;8048;50.644;6.184;2022-08-06T12:29:54;27.70;52.50
15900;DHT22;8048;50.644;6.184;2022-08-06T12:32:23;28.00;50.70
15900;DHT22;8048;50.644;6.184;2022-08-06T12:34:50;28.10;48.30
15900;DHT22;8048;50.644;6.184;2022-08-06T12:37:17;28.60;50.40
15900;DHT22;8048;50.644;6.184;2022-08-06T12:39:44;29.30;48.60
15900;DHT22;8048;50.644;6.184;2022-08-06T12:42:29;29.60;48.10
15900;DHT22;8048;50.644;6.184;2022-08-06T12:44:55;29.70;47.40
15900;DHT22;8048;50.644;6.184;2022-08-06T12:47:21;29.70;47.90
15900;DHT22;8048;50.644;6.184;2022-08-06T12:49:47;29.60;46.50
15900;DHT22;8048;50.644;6.184;2022-08-06T12:52:18;30.00;46.40
15900;DHT22;8048;50.644;6.184;2022-08-06T12:54:45;30.60;46.10
15900;DHT22;8048;50.644;6.184;2022-08-06T12:57:24;30.10;44.60
15900;DHT22;8048;50.644;6.184;2022-08-06T12:59:52;29.10;45.10
15900;DHT22;8048;50.644;6.184;2022-08-06T13:02:21;29.20;46.60
15900;DHT22;8048;50.644;6.184;2022-08-06T13:04:50;29.90;46.60
15900;DHT22;8048;50.644;6.184;2022-08-06T13:07:16;30.10;45.20
15900;DHT22;8048;50.644;6.184;2022-08-06T13:09:44;30.00;44.60
15900;DHT22;8048;50.644;6.184;2022-08-06T13:12:15;29.40;45.50
15900;DHT22;8048;50.644;6.184;2022-08-06T13:14:53;29.00;45.60
15900;DHT22;8048;50.644;6.184;2022-08-06T13:17:22;28.20;46.70
15900;DHT22;8048;50.644;6.184;2022-08-06T13:19:53;28.40;47.80
15900;DHT22;8048;50.644;6.184;2022-08-06T13:22:18;29.20;45.90
15900;DHT22;8048;50.644;6.184;2022-08-06T13:24:44;29.60;45.20
15900;DHT22;8048;50.644;6.184;2022-08-06T13:27:10;30.00;45.90
15900;DHT22;8048;50.644;6.184;2022-08-06T13:29:36;30.40;44.90
15900;DHT22;8048;50.644;6.184;2022-08-06T13:34:28;29.20;45.40
15900;DHT22;8048;50.644;6.184;2022-08-06T13:36:55;28.50;43.60
15900;DHT22;8048;50.644;6.184;2022-08-06T13:39:30;28.40;46.00
15900;DHT22;8048;50.644;6.184;2022-08-06T13:42:23;27.80;45.00
15900;DHT22;8048;50.644;6.184;2022-08-06T13:44:48;28.10;46.70
15900;DHT22;8048;50.644;6.184;2022-08-06T13:47:26;27.60;46.70
15900;DHT22;8048;50.644;6.184;2022-08-06T13:49:52;27.70;47.20
15900;DHT22;8048;50.644;6.184;2022-08-06T13:52:17;27.10;45.80
15900;DHT22;8048;50.644;6.184;2022-08-06T13:54:43;26.80;47.00
15900;DHT22;8048;50.644;6.184;2022-08-06T13:57:08;27.20;47.20
15900;DHT22;8048;50.644;6.184;2022-08-06T13:59:34;27.80;46.10
15900;DHT22;8048;50.644;6.184;2022-08-06T14:02:02;28.40;45.10
15900;DHT22;8048;50.644;6.184;2022-08-06T14:04:28;28.90;43.60
15900;DHT22;8048;50.644;6.184;2022-08-06T14:06:56;29.30;44.90
15900;DHT22;8048;50.644;6.184;2022-08-06T14:09:23;29.80;44.10
15900;DHT22;8048;50.644;6.184;2022-08-06T14:11:58;29.30;44.80
15900;DHT22;8048;50.644;6.184;2022-08-06T14:14:27;28.60;45.00
15900;DHT22;8048;50.644;6.184;2022-08-06T14:16:54;27.60;45.00
15900;DHT22;8048;50.644;6.184;2022-08-06T14:19:20;27.20;46.30
15900;DHT22;8048;50.644;6.184;2022-08-06T14:21:46;27.50;46.60
15900;DHT22;8048;50.644;6.184;2022-08-06T14:24:11;28.00;45.30
15900;DHT22;8048;50.644;6.184;2022-08-06T14:26:37;28.60;45.10
15900;DHT22;8048;50.644;6.184;2022-08-06T14:29:03;29.20;43.20
15900;DHT22;8048;50.644;6.184;2022-08-06T14:31:31;29.40;44.40
15900;DHT22;8048;50.644;6.184;2022-08-06T14:33:57;29.70;43.10
15900;DHT22;8048;50.644;6.184;2022-08-06T14:36:23;29.60;42.00
15900;DHT22;8048;50.644;6.184;2022-08-06T14:38:49;29.40;44.20
15900;DHT22;8048;50.644;6.184;2022-08-06T14:41:14;29.60;43.10
15900;DHT22;8048;50.644;6.184;2022-08-06T14:43:58;29.60;42.50
15900;DHT22;8048;50.644;6.184;2022-08-06T14:46:42;29.70;43.80
15900;DHT22;8048;50.644;6.184;2022-08-06T14:49:08;29.70;44.00
15900;DHT22;8048;50.644;6.184;2022-08-06T14:51:33;29.50;43.20
15900;DHT22;8048;50.644;6.184;2022-08-06T14:53:59;29.70;44.20
15900;DHT22;8048;50.644;6.184;2022-08-06T14:56:24;29.30;43.70
15900;DHT22;8048;50.644;6.184;2022-08-06T14:58:50;28.70;44.70
15900;DHT22;8048;50.644;6.184;2022-08-06T15:01:16;28.20;45.20
15900;DHT22;8048;50.644;6.184;2022-08-06T15:03:41;27.70;45.70
15900;DHT22;8048;50.644;6.184;2022-08-06T15:06:07;27.20;45.60
15900;DHT22;8048;50.644;6.184;2022-08-06T15:08:33;26.60;46.70
15900;DHT22;8048;50.644;6.184;2022-08-06T15:10:59;26.60;46.30
15900;DHT22;8048;50.644;6.184;2022-08-06T15:13:25;27.00;47.30
15900;DHT22;8048;50.644;6.184;2022-08-06T15:15:50;26.90;46.50
15900;DHT22;8048;50.644;6.184;2022-08-06T15:18:16;26.40;45.70
15900;DHT22;8048;50.644;6.184;2022-08-06T15:20:42;26.10;45.90
15900;DHT22;8048;50.644;6.184;2022-08-06T15:23:07;25.60;46.40
15900;DHT22;8048;50.644;6.184;2022-08-06T15:25:33;25.60;46.60
15900;DHT22;8048;50.644;6.184;2022-08-06T15:27:59;26.20;46.00
15900;DHT22;8048;50.644;6.184;2022-08-06T15:30:25;26.90;47.60
15900;DHT22;8048;50.644;6.184;2022-08-06T15:32:51;27.10;45.00
15900;DHT22;8048;50.644;6.184;2022-08-06T15:35:17;27.40;45.20
15900;DHT22;8048;50.644;6.184;2022-08-06T15:37:42;27.70;45.70
15900;DHT22;8048;50.644;6.184;2022-08-06T15:40:09;28.10;45.60
15900;DHT22;8048;50.644;6.184;2022-08-06T15:42:35;28.30;44.90
15900;DHT22;8048;50.644;6.184;2022-08-06T15:45:00;28.10;45.40
15900;DHT22;8048;50.644;6.184;2022-08-06T15:47:26;27.90;46.00
15900;DHT22;8048;50.644;6.184;2022-08-06T15:49:51;27.90;46.10
15900;DHT22;8048;50.644;6.184;2022-08-06T15:52:17;27.50;45.10
15900;DHT22;8048;50.644;6.184;2022-08-06T15:54:42;26.90;45.00
15900;DHT22;8048;50.644;6.184;2022-08-06T15:57:08;26.70;45.40
15900;DHT22;8048;50.644;6.184;2022-08-06T15:59:34;26.20;45.50
15900;DHT22;8048;50.644;6.184;2022-08-06T16:01:59;25.70;46.30
15900;DHT22;8048;50.644;6.184;2022-08-06T16:04:25;25.40;45.90
15900;DHT22;8048;50.644;6.184;2022-08-06T16:06:50;25.00;46.90
15900;DHT22;8048;50.644;6.184;2022-08-06T16:09:18;24.70;47.20
15900;DHT22;8048;50.644;6.184;2022-08-06T16:11:44;24.40;47.60
15900;DHT22;8048;50.644;6.184;2022-08-06T16:14:09;24.20;47.80
15900;DHT22;8048;50.644;6.184;2022-08-06T16:16:35;24.00;48.40
15900;DHT22;8048;50.644;6.184;2022-08-06T16:19:01;23.70;48.10
15900;DHT22;8048;50.644;6.184;2022-08-06T16:21:26;23.40;49.00
15900;DHT22;8048;50.644;6.184;2022-08-06T16:23:52;23.40;48.70
15900;DHT22;8048;50.644;6.184;2022-08-06T16:26:17;23.50;49.60
15900;DHT22;8048;50.644;6.184;2022-08-06T16:28:46;23.60;49.80
15900;DHT22;8048;50.644;6.184;2022-08-06T16:31:11;23.80;49.90
15900;DHT22;8048;50.644;6.184;2022-08-06T16:33:37;24.20;48.80
15900;DHT22;8048;50.644;6.184;2022-08-06T16:36:03;24.50;47.80
15900;DHT22;8048;50.644;6.184;2022-08-06T16:38:28;24.60;48.40
15900;DHT22;8048;50.644;6.184;2022-08-06T16:40:54;24.70;48.70
15900;DHT22;8048;50.644;6.184;2022-08-06T16:43:20;24.80;48.40
15900;DHT22;8048;50.644;6.184;2022-08-06T16:45:45;24.80;48.80
15900;DHT22;8048;50.644;6.184;2022-08-06T16:48:11;24.80;48.30
15900;DHT22;8048;50.644;6.184;2022-08-06T16:50:36;24.80;48.30
15900;DHT22;8048;50.644;6.184;2022-08-06T16:53:04;24.90;48.10
15900;DHT22;8048;50.644;6.184;2022-08-06T16:55:30;24.90;48.70
15900;DHT22;8048;50.644;6.184;2022-08-06T16:57:55;24.90;48.10
15900;DHT22;8048;50.644;6.184;2022-08-06T17:00:21;24.60;47.90
15900;DHT22;8048;50.644;6.184;2022-08-06T17:02:46;24.20;48.50
15900;DHT22;8048;50.644;6.184;2022-08-06T17:05:15;23.80;47.90
15900;DHT22;8048;50.644;6.184;2022-08-06T17:07:44;23.60;48.00
15900;DHT22;8048;50.644;6.184;2022-08-06T17:10:12;23.30;48.40
15900;DHT22;8048;50.644;6.184;2022-08-06T17:12:41;22.90;48.40
15900;DHT22;8048;50.644;6.184;2022-08-06T17:15:07;22.60;48.80